Aviation Digital Data Service (ADDS)

Output produced by METARs form (1254 UTC 21 February 2018)
found at http://www.aviationweather.gov/adds/metars/
 
EFET 211250Z AUTO 22004KT CAVOK M16/M19 Q1020
EFHA 211250Z 28003KT CAVOK M11/M14 Q1027
EFHK 211250Z 28002KT 9999 FEW017 M09/M12 Q1028 NOSIG
TAF EFHK 201431Z 2015/2115 01005KT CAVOK 
     PROB30 
     TEMPO 2103/2108 5000 -SN
       
EFIV 211250Z AUTO VRB01KT 9999 -SG OVC021 M08/M09 Q1018
EFJO 211250Z AUTO 27005KT 230V310 CAVOK M10/M13 Q1025
EFJY 211250Z VRB00KT CAVOK M11/M14 Q1027
TAF EFJY 201431Z 2015/2115 33003KT CAVOK 
     PROB30 
     TEMPO 2021/2110 2500 -SN BKN004
       
EFKI 211250Z AUTO 25006KT CAVOK M12/M15 Q1026
EFKE 211250Z 20004KT CAVOK M15/M19 Q1027
EFKT 211250Z AUTO 24009KT CAVOK M10/M15 Q1021
EFKK 211250Z AUTO 27002KT 9000 -SN FEW010 BKN049 M11/M13 Q1029
EFKU 211250Z 32003KT 9999 BKN049 M12/M15 Q1027
TAF EFKU 201432Z 2015/2115 28003KT CAVOK 
     PROB40 
     TEMPO 2020/2108 2000 -SN BKN004
       
EFKS 211250Z AUTO 28011KT 9999 FEW049 SCT066 M11/M15 Q1020
EFLP 211250Z AUTO VRB01KT 9999 -SN SKC M11/M13 Q1027
EFMA 211250Z AUTO 11004KT 090V150 8000 -SN OVC040 M04/M08 Q1028
EFMI 211250Z AUTO 27003KT 9999 -SHSN SKC M11/M15 Q1027
EFOU 211250Z AUTO 29008KT CAVOK M13/M15 Q1027
TAF EFOU 201424Z 2015/2115 32002KT 9999 -SN SCT006 
     TEMPO 2015/2020 6000 BKN004 
     BECMG 2022/2024 6000 BKN004 
     BECMG 2107/2109 9999 FEW003 
     PROB40 2107/2112 2000 BCFG BKN002
       
EFPO 211250Z AUTO 22002KT CAVOK M07/M13 Q1029
EFRO 211250Z 26009KT CAVOK M12/M15 Q1023
TAF EFRO 201424Z 2015/2115 32008KT 9999 BKN030 
     TEMPO 2020/2101 6000 
     PROB40 2101/2109 2000 BCFG BKN001
       
EFSA 211250Z AUTO 24004KT 210V280 9999 -SN BKN038 M13/M16 Q1027
EFSI 211250Z AUTO 11001KT 9999 OVC045 M13/M14 Q1028
EFTP 211250Z VRB02KT CAVOK M10/M14 Q1028
TAF EFTP 201431Z 2015/2115 36003KT CAVOK 
     PROB30 
     TEMPO 2100/2106 3000 -SN BKN003
       
EFTU 211250Z AUTO 09005KT CAVOK M08/M12 Q1028
TAF EFTU 201431Z 2015/2115 04004KT CAVOK 
     PROB30 
     TEMPO 2100/2108 4000 -SN
       
EFUT 211250Z 29004KT 9999 FEW015 M10/M14 Q1027
EFVA 211250Z AUTO 19002KT CAVOK M14/M16 Q1029
TAF EFVA 201424Z 2015/2115 VRB02KT 9999 FEW006 
     PROB40 2017/2023 2000 -SN BKN006 
     TEMPO 2023/2110 1300 BR BKN002